Time;durP1;ratioP1;P1;durP2;ratioP2;P2;SDS_P1;SDS_P2;PMS_P1;PMS_P2;Temp;Humidity;BMP_temperature;BMP_pressure;BME280_temperature;BME280_humidity;BME280_pressure;Samples;Min_cycle;Max_cycle;Signal;HPM_P1;HPM_P2
2023/07/21 12:19:11;;;;;;;2.47;1.02;;;;;;;;;;4907210;29;20084;-62
2023/07/21 12:21:37;;;;;;;1.70;1.00;;;;;;;;;;4910107;29;20544;-62
2023/07/21 12:24:03;;;;;;;1.80;1.00;;;;;;;;;;4912069;29;20051;-62
2023/07/21 12:26:29;;;;;;;3.05;1.27;;;;;;;;;;4913333;29;20067;-62
2023/07/21 12:28:55;;;;;;;1.85;1.20;;;;;;;;;;4896367;29;20513;-62
2023/07/21 12:31:21;;;;;;;2.28;1.27;;;;;;;;;;4912455;29;20084;-62
2023/07/21 12:33:48;;;;;;;2.40;1.13;;;;;;;;;;4909710;29;20079;-62
2023/07/21 12:36:17;;;;;;;1.60;0.90;;;;;;;;;;4912756;29;20048;-62
2023/07/21 12:38:43;;;;;;;1.95;1.17;;;;;;;;;;4913253;29;20059;-61
2023/07/21 12:41:10;;;;;;;2.30;1.40;;;;;;;;;;4912475;29;20146;-62
2023/07/21 12:43:36;;;;;;;2.17;1.23;;;;;;;;;;4921973;29;20055;-62
2023/07/21 12:46:03;;;;;;;2.58;1.63;;;;;;;;;;4926024;29;20059;-62
2023/07/21 12:48:30;;;;;;;2.83;2.00;;;;;;;;;;4910941;29;20044;-62
2023/07/21 12:50:56;;;;;;;2.63;1.40;;;;;;;;;;4912158;29;20045;-62
2023/07/21 12:53:22;;;;;;;4.15;1.83;;;;;;;;;;4912240;29;20166;-62
2023/07/21 12:55:51;;;;;;;2.30;1.40;;;;;;;;;;4913187;29;20184;-61
2023/07/21 12:58:17;;;;;;;2.60;1.63;;;;;;;;;;4913095;29;20410;-62
2023/07/21 13:00:44;;;;;;;3.90;1.83;;;;;;;;;;4928372;29;20506;-62
2023/07/21 13:03:10;;;;;;;3.38;1.40;;;;;;;;;;4920506;29;20044;-62
2023/07/21 13:05:36;;;;;;;1.90;1.15;;;;;;;;;;4912901;29;20131;-62
2023/07/21 13:08:03;;;;;;;3.00;1.50;;;;;;;;;;4913167;29;20221;-62
2023/07/21 13:10:29;;;;;;;3.83;1.25;;;;;;;;;;4930490;29;20058;-62
2023/07/21 13:12:55;;;;;;;2.65;1.88;;;;;;;;;;4918894;29;20059;-62
2023/07/21 13:15:21;;;;;;;4.65;1.50;;;;;;;;;;4911803;29;20066;-61
2023/07/21 13:17:47;;;;;;;2.90;1.30;;;;;;;;;;4910020;29;20052;-61
2023/07/21 13:20:14;;;;;;;2.63;1.70;;;;;;;;;;4909863;29;20048;-62
2023/07/21 13:22:43;;;;;;;3.40;1.60;;;;;;;;;;4911404;29;20391;-61
2023/07/21 13:25:09;;;;;;;6.00;1.45;;;;;;;;;;4916418;29;20054;-61
2023/07/21 13:27:36;;;;;;;3.20;1.90;;;;;;;;;;4914800;29;20040;-61
2023/07/21 13:30:02;;;;;;;3.40;2.00;;;;;;;;;;4916145;29;20059;-61
2023/07/21 13:32:28;;;;;;;3.33;2.07;;;;;;;;;;4924620;29;20083;-61
2023/07/21 13:34:54;;;;;;;9.20;2.50;;;;;;;;;;4916824;29;20076;-61
2023/07/21 13:37:20;;;;;;;5.73;2.27;;;;;;;;;;4916097;29;20048;-61
2023/07/21 13:39:46;;;;;;;4.30;2.00;;;;;;;;;;4915829;29;20055;-62
2023/07/21 13:42:13;;;;;;;4.87;2.27;;;;;;;;;;4915179;29;20044;-62
2023/07/21 13:44:39;;;;;;;4.17;2.53;;;;;;;;;;4914055;29;20051;-62
2023/07/21 13:47:05;;;;;;;3.90;2.60;;;;;;;;;;4913906;29;20040;-62
2023/07/21 13:49:32;;;;;;;4.43;2.27;;;;;;;;;;4914206;29;20062;-62
2023/07/21 13:51:59;;;;;;;4.00;2.30;;;;;;;;;;4927148;29;20052;-63
2023/07/21 13:54:25;;;;;;;4.17;2.90;;;;;;;;;;4914318;29;20059;-63
2023/07/21 13:56:51;;;;;;;4.17;2.93;;;;;;;;;;4916327;29;20497;-63
2023/07/21 13:59:17;;;;;;;3.57;2.50;;;;;;;;;;4915950;29;20514;-64
2023/07/21 14:01:43;;;;;;;4.63;3.43;;;;;;;;;;4926554;29;20058;-63
2023/07/21 14:04:09;;;;;;;3.73;3.00;;;;;;;;;;4928183;29;20080;-63
2023/07/21 14:06:37;;;;;;;5.87;3.47;;;;;;;;;;4919150;29;20046;-63
2023/07/21 14:09:07;;;;;;;4.83;3.57;;;;;;;;;;4915157;29;20059;-63
2023/07/21 14:11:33;;;;;;;8.00;4.60;;;;;;;;;;4914942;29;20466;-63
2023/07/21 14:13:59;;;;;;;8.07;4.53;;;;;;;;;;4916349;29;20051;-63
2023/07/21 14:16:25;;;;;;;4.70;4.10;;;;;;;;;;4912972;29;20434;-63
2023/07/21 14:18:51;;;;;;;7.83;4.90;;;;;;;;;;4915288;29;20417;-63
2023/07/21 14:21:17;;;;;;;6.97;5.27;;;;;;;;;;4926104;29;20083;-63
2023/07/21 14:23:43;;;;;;;11.83;5.27;;;;;;;;;;4924748;29;20509;-63
2023/07/21 14:26:09;;;;;;;6.17;4.00;;;;;;;;;;4920381;29;20040;-63
2023/07/21 14:28:35;;;;;;;8.23;4.90;;;;;;;;;;4904800;29;20052;-63
2023/07/21 14:31:01;;;;;;;4.10;3.57;;;;;;;;;;4913972;29;20071;-63
2023/07/21 14:33:27;;;;;;;6.27;4.10;;;;;;;;;;4914295;29;20063;-63
2023/07/21 14:35:53;;;;;;;5.00;3.63;;;;;;;;;;4922514;29;20131;-63
2023/07/21 14:38:20;;;;;;;5.40;3.67;;;;;;;;;;4914862;29;20079;-63
2023/07/21 14:40:46;;;;;;;3.83;3.13;;;;;;;;;;4914567;29;20060;-63
2023/07/21 14:43:12;;;;;;;4.57;3.53;;;;;;;;;;4915272;29;20056;-63
2023/07/21 14:45:38;;;;;;;6.20;3.30;;;;;;;;;;4914334;29;20050;-63
2023/07/21 14:48:04;;;;;;;4.00;3.00;;;;;;;;;;4914794;29;20049;-63
2023/07/21 14:50:31;;;;;;;5.43;3.60;;;;;;;;;;4913243;29;20491;-63
2023/07/21 14:52:58;;;;;;;4.43;3.10;;;;;;;;;;4915039;29;20096;-62
2023/07/21 14:55:24;;;;;;;7.63;4.33;;;;;;;;;;4914201;29;20058;-63
2023/07/21 14:57:50;;;;;;;13.03;3.77;;;;;;;;;;4915036;29;20044;-63
2023/07/21 15:00:22;;;;;;;5.37;4.03;;;;;;;;;;4913453;29;20147;-64
2023/07/21 15:02:48;;;;;;;6.37;3.80;;;;;;;;;;4896470;29;20466;-64
2023/07/21 15:05:15;;;;;;;7.53;4.33;;;;;;;;;;4913060;29;20315;-64
2023/07/21 15:07:41;;;;;;;7.40;4.20;;;;;;;;;;4920695;29;20098;-64
2023/07/21 15:10:08;;;;;;;9.67;4.50;;;;;;;;;;4929003;29;20058;-64
2023/07/21 15:12:35;;;;;;;7.93;5.50;;;;;;;;;;4912922;29;20044;-64
2023/07/21 15:15:01;;;;;;;7.37;5.80;;;;;;;;;;4913584;29;20048;-65
2023/07/21 15:17:27;;;;;;;12.07;7.37;;;;;;;;;;4912171;29;20071;-64
2023/07/21 15:19:53;;;;;;;8.80;5.97;;;;;;;;;;4914472;29;20056;-65
2023/07/21 15:22:19;;;;;;;10.07;6.17;;;;;;;;;;4912770;29;20498;-64
2023/07/21 15:24:45;;;;;;;12.73;7.00;;;;;;;;;;4913718;29;20525;-64
2023/07/21 15:27:11;;;;;;;15.37;7.50;;;;;;;;;;4913577;29;20084;-64
2023/07/21 15:29:37;;;;;;;10.23;6.00;;;;;;;;;;4914237;29;20056;-65
2023/07/21 15:32:03;;;;;;;11.77;7.77;;;;;;;;;;4912142;29;20126;-65
2023/07/21 15:34:29;;;;;;;8.93;5.43;;;;;;;;;;4912166;29;20059;-65
2023/07/21 15:36:55;;;;;;;11.33;8.03;;;;;;;;;;4913927;29;20044;-66
2023/07/21 15:39:22;;;;;;;11.87;8.00;;;;;;;;;;4895670;29;20048;-66
2023/07/21 15:41:48;;;;;;;10.93;7.50;;;;;;;;;;4913660;29;20130;-66
2023/07/21 15:44:14;;;;;;;15.30;7.80;;;;;;;;;;4912850;29;20483;-65
2023/07/21 15:46:40;;;;;;;22.60;9.27;;;;;;;;;;4913406;29;20131;-65
2023/07/21 15:49:06;;;;;;;23.47;7.70;;;;;;;;;;4911821;29;20143;-65
2023/07/21 15:51:32;;;;;;;26.93;8.17;;;;;;;;;;4913142;29;20063;-65
2023/07/21 15:53:58;;;;;;;11.87;7.47;;;;;;;;;;4912336;29;20048;-65
2023/07/21 15:56:24;;;;;;;15.80;7.70;;;;;;;;;;4912828;29;20059;-65
2023/07/21 15:58:51;;;;;;;14.63;8.73;;;;;;;;;;4912937;29;20473;-65
2023/07/21 16:01:17;;;;;;;13.07;8.17;;;;;;;;;;4913141;29;20044;-65
2023/07/21 16:03:43;;;;;;;13.90;8.40;;;;;;;;;;4912615;29;20056;-66
2023/07/21 16:06:09;;;;;;;13.47;8.30;;;;;;;;;;4913443;29;20040;-66
2023/07/21 16:08:36;;;;;;;17.87;9.43;;;;;;;;;;4912468;29;20056;-66
2023/07/21 16:11:04;;;;;;;12.30;9.03;;;;;;;;;;4912908;29;20166;-66
2023/07/21 16:13:30;;;;;;;14.97;9.57;;;;;;;;;;4912948;29;20150;-66
2023/07/21 16:16:01;;;;;;;14.83;8.93;;;;;;;;;;4912622;29;20526;-66
2023/07/21 16:18:27;;;;;;;11.87;7.10;;;;;;;;;;4912948;29;20191;-66
2023/07/21 16:20:53;;;;;;;13.60;8.53;;;;;;;;;;4912760;29;20131;-66
2023/07/21 16:23:19;;;;;;;12.53;7.63;;;;;;;;;;4912540;29;20140;-67
2023/07/21 16:25:45;;;;;;;12.67;8.17;;;;;;;;;;4894979;29;20063;-67
2023/07/21 16:28:11;;;;;;;12.73;8.00;;;;;;;;;;4910514;29;20048;-67
2023/07/21 16:30:38;;;;;;;12.07;8.57;;;;;;;;;;4911294;29;20048;-65
2023/07/21 16:33:04;;;;;;;11.97;7.57;;;;;;;;;;4912317;29;20052;-65
2023/07/21 16:35:30;;;;;;;8.07;6.53;;;;;;;;;;4912488;29;20094;-65
2023/07/21 16:37:56;;;;;;;8.90;6.80;;;;;;;;;;4912027;29;20505;-65
2023/07/21 16:40:22;;;;;;;74.67;13.83;;;;;;;;;;4912225;29;20048;-66
2023/07/21 16:42:48;;;;;;;298.13;40.50;;;;;;;;;;4912746;29;20886;-66
2023/07/21 16:45:14;;;;;;;745.33;94.50;;;;;;;;;;4912310;29;20130;-65
2023/07/21 16:47:41;;;;;;;41.07;9.23;;;;;;;;;;4912224;29;20107;-66
2023/07/21 16:50:08;;;;;;;75.90;12.33;;;;;;;;;;4911978;29;20135;-65
2023/07/21 16:52:34;;;;;;;38.43;11.33;;;;;;;;;;4912265;29;20072;-65
2023/07/21 16:55:00;;;;;;;17.23;9.53;;;;;;;;;;4912292;29;20507;-64
2023/07/21 16:57:26;;;;;;;12.53;7.53;;;;;;;;;;4911782;29;20055;-64
2023/07/21 16:59:56;;;;;;;10.33;8.07;;;;;;;;;;4911762;29;20044;-64
2023/07/21 17:02:22;;;;;;;12.77;7.93;;;;;;;;;;4911981;29;20143;-64
2023/07/21 17:04:53;;;;;;;12.03;8.40;;;;;;;;;;4912184;29;20052;-63
2023/07/21 17:07:19;;;;;;;9.73;7.97;;;;;;;;;;4912248;29;20056;-63
2023/07/21 17:09:45;;;;;;;12.27;8.93;;;;;;;;;;4911623;29;20107;-63
2023/07/21 17:12:10;;;;;;;10.63;8.87;;;;;;;;;;4895284;29;20089;-62
2023/07/21 17:14:36;;;;;;;16.27;10.37;;;;;;;;;;4911515;29;20059;-62
2023/07/21 17:17:02;;;;;;;13.13;9.47;;;;;;;;;;4911740;29;20482;-63
2023/07/21 17:19:28;;;;;;;16.43;11.13;;;;;;;;;;4911890;29;20103;-62
2023/07/21 17:21:54;;;;;;;12.50;9.13;;;;;;;;;;4911465;29;20059;-62
2023/07/21 17:24:21;;;;;;;17.00;10.27;;;;;;;;;;4911951;29;20052;-62
2023/07/21 17:26:48;;;;;;;12.70;8.97;;;;;;;;;;4911944;29;20047;-62
2023/07/21 17:29:13;;;;;;;15.37;9.83;;;;;;;;;;4911894;29;20052;-63
2023/07/21 17:31:39;;;;;;;14.60;10.50;;;;;;;;;;4911949;29;20048;-62
2023/07/21 17:34:05;;;;;;;12.80;9.27;;;;;;;;;;4910872;29;20503;-62
2023/07/21 17:36:31;;;;;;;13.43;9.80;;;;;;;;;;4911780;29;20052;-62
2023/07/21 17:38:57;;;;;;;16.40;10.73;;;;;;;;;;4911751;29;20187;-62
2023/07/21 17:41:23;;;;;;;11.90;9.17;;;;;;;;;;4911476;29;20143;-62
2023/07/21 17:43:49;;;;;;;11.30;8.83;;;;;;;;;;4911830;29;20052;-62
2023/07/21 17:46:15;;;;;;;11.00;7.97;;;;;;;;;;4911445;29;20526;-63
2023/07/21 17:48:41;;;;;;;10.47;9.00;;;;;;;;;;4912185;29;20048;-62
2023/07/21 17:51:07;;;;;;;12.63;8.67;;;;;;;;;;4910867;29;20498;-61
2023/07/21 17:53:34;;;;;;;9.33;7.30;;;;;;;;;;4912170;29;20473;-61
2023/07/21 17:56:00;;;;;;;10.37;9.13;;;;;;;;;;4912449;29;20048;-61
2023/07/21 17:58:26;;;;;;;12.20;8.47;;;;;;;;;;4911967;29;20458;-61
2023/07/21 18:00:52;;;;;;;13.77;8.23;;;;;;;;;;4911767;29;20079;-61
2023/07/21 18:03:18;;;;;;;9.80;8.60;;;;;;;;;;4912147;29;20499;-61
2023/07/21 18:05:45;;;;;;;10.30;7.47;;;;;;;;;;4911964;29;20048;-62
2023/07/21 18:08:11;;;;;;;11.57;8.23;;;;;;;;;;4912216;29;20414;-62
2023/07/21 18:10:37;;;;;;;11.73;8.93;;;;;;;;;;4911529;29;20540;-61
2023/07/21 18:13:03;;;;;;;17.03;7.80;;;;;;;;;;4913765;29;20060;-62
2023/07/21 18:15:33;;;;;;;11.43;7.40;;;;;;;;;;4915677;29;20521;-61
2023/07/21 18:17:59;;;;;;;8.77;7.57;;;;;;;;;;4915594;29;20191;-61
2023/07/21 18:20:25;;;;;;;10.90;8.20;;;;;;;;;;4915273;29;20056;-61
2023/07/21 18:22:53;;;;;;;10.53;8.33;;;;;;;;;;4915088;29;20096;-61
2023/07/21 18:25:19;;;;;;;14.13;8.43;;;;;;;;;;4915357;29;20143;-61
2023/07/21 18:27:45;;;;;;;8.63;7.20;;;;;;;;;;4915108;29;20531;-61
2023/07/21 18:30:11;;;;;;;9.67;6.87;;;;;;;;;;4915529;29;20088;-61
2023/07/21 18:32:37;;;;;;;10.17;6.40;;;;;;;;;;4915125;29;20060;-61
2023/07/21 18:35:04;;;;;;;10.67;6.37;;;;;;;;;;4914553;29;20048;-61
2023/07/21 18:37:31;;;;;;;10.03;6.50;;;;;;;;;;4915106;29;20056;-61
2023/07/21 18:39:57;;;;;;;8.43;6.30;;;;;;;;;;4915277;29;20080;-61
2023/07/21 18:42:25;;;;;;;7.00;5.57;;;;;;;;;;4915063;29;20562;-61
2023/07/21 18:44:50;;;;;;;9.87;5.80;;;;;;;;;;4915064;29;20512;-61
2023/07/21 18:47:16;;;;;;;10.63;6.07;;;;;;;;;;4914544;29;20044;-61
2023/07/21 18:49:44;;;;;;;11.23;5.50;;;;;;;;;;4914771;29;20055;-61
2023/07/21 18:52:10;;;;;;;9.20;5.43;;;;;;;;;;4914920;29;20417;-61
2023/07/21 18:54:36;;;;;;;10.23;5.27;;;;;;;;;;4914822;29;20044;-61
2023/07/21 18:57:02;;;;;;;10.53;4.83;;;;;;;;;;4914905;29;20055;-61
2023/07/21 18:59:28;;;;;;;15.67;6.50;;;;;;;;;;4914606;29;20051;-60
2023/07/21 19:01:54;;;;;;;6.80;5.47;;;;;;;;;;4914302;29;20490;-61
2023/07/21 19:04:20;;;;;;;6.67;5.27;;;;;;;;;;4914659;29;20130;-61
2023/07/21 19:06:46;;;;;;;8.40;5.30;;;;;;;;;;4914511;29;20036;-61
2023/07/21 19:09:12;;;;;;;8.47;5.13;;;;;;;;;;4914120;29;20062;-61
2023/07/21 19:11:38;;;;;;;7.93;5.33;;;;;;;;;;4913316;29;20127;-61
2023/07/21 19:14:04;;;;;;;14.43;5.30;;;;;;;;;;4914154;29;20098;-61
2023/07/21 19:16:30;;;;;;;12.37;6.27;;;;;;;;;;4914499;29;20052;-61
2023/07/21 19:18:56;;;;;;;6.30;5.07;;;;;;;;;;4914249;29;20052;-61
2023/07/21 19:21:22;;;;;;;9.47;5.30;;;;;;;;;;4914376;29;20052;-61
2023/07/21 19:23:48;;;;;;;8.47;4.93;;;;;;;;;;4913142;29;20115;-61
2023/07/21 19:26:14;;;;;;;10.33;5.53;;;;;;;;;;4914306;29;20047;-61
2023/07/21 19:28:40;;;;;;;8.00;5.10;;;;;;;;;;4897630;29;20104;-61
2023/07/21 19:31:06;;;;;;;7.60;4.83;;;;;;;;;;4914093;29;20122;-61
2023/07/21 19:33:34;;;;;;;11.87;5.20;;;;;;;;;;4914016;29;20103;-61
2023/07/21 19:35:59;;;;;;;8.50;5.33;;;;;;;;;;4913650;29;20088;-61
2023/07/21 19:38:26;;;;;;;8.93;5.57;;;;;;;;;;4913862;29;20829;-61
2023/07/21 19:40:52;;;;;;;9.10;5.13;;;;;;;;;;4914215;29;20044;-61
2023/07/21 19:43:18;;;;;;;9.73;4.97;;;;;;;;;;4914057;29;20135;-61
2023/07/21 19:45:44;;;;;;;8.47;5.23;;;;;;;;;;4913611;29;20123;-61
2023/07/21 19:48:11;;;;;;;6.23;4.23;;;;;;;;;;4913522;29;20052;-61
2023/07/21 19:50:38;;;;;;;8.77;4.10;;;;;;;;;;4913787;29;20087;-61
2023/07/21 19:53:04;;;;;;;9.67;4.10;;;;;;;;;;4913754;29;20052;-61
2023/07/21 19:55:39;;;;;;;12.33;5.20;;;;;;;;;;4913748;29;20135;-61
2023/07/21 19:58:08;;;;;;;6.27;3.47;;;;;;;;;;4913284;29;20048;-61
2023/07/21 20:00:34;;;;;;;9.03;4.10;;;;;;;;;;4913828;29;20130;-61
2023/07/21 20:03:00;;;;;;;8.67;3.30;;;;;;;;;;4913715;29;20135;-61
2023/07/21 20:05:26;;;;;;;11.57;4.17;;;;;;;;;;4913353;29;20438;-61
2023/07/21 20:07:53;;;;;;;10.33;4.07;;;;;;;;;;4913120;29;20040;-61
2023/07/21 20:10:19;;;;;;;13.67;4.20;;;;;;;;;;4913882;29;20044;-61
2023/07/21 20:12:45;;;;;;;9.33;3.97;;;;;;;;;;4913222;29;20417;-61
2023/07/21 20:15:12;;;;;;;10.03;4.10;;;;;;;;;;4912879;29;20104;-61
2023/07/21 20:17:38;;;;;;;9.30;4.27;;;;;;;;;;4913132;29;20201;-61
2023/07/21 20:20:04;;;;;;;10.57;3.77;;;;;;;;;;4913134;29;20059;-61
2023/07/21 20:22:31;;;;;;;10.10;4.57;;;;;;;;;;4913299;29;20195;-61
2023/07/21 20:24:56;;;;;;;10.37;4.50;;;;;;;;;;4913324;29;20418;-61
2023/07/21 20:27:22;;;;;;;7.73;3.80;;;;;;;;;;4913236;29;20055;-61
2023/07/21 20:29:48;;;;;;;8.33;4.40;;;;;;;;;;4912531;29;20135;-61
2023/07/21 20:32:16;;;;;;;9.20;4.13;;;;;;;;;;4913236;29;20051;-61
2023/07/21 20:34:42;;;;;;;7.77;4.07;;;;;;;;;;4912999;29;20419;-61
2023/07/21 20:37:08;;;;;;;9.03;4.70;;;;;;;;;;4912575;29;20044;-60
2023/07/21 20:39:34;;;;;;;9.83;4.50;;;;;;;;;;4913199;29;20464;-60
2023/07/21 20:42:00;;;;;;;12.70;4.67;;;;;;;;;;4913221;29;20100;-60
2023/07/21 20:44:26;;;;;;;11.57;4.50;;;;;;;;;;4912825;29;20095;-61
2023/07/21 20:46:53;;;;;;;11.07;4.93;;;;;;;;;;4913349;29;20499;-61
2023/07/21 20:49:19;;;;;;;16.27;5.77;;;;;;;;;;4912602;29;20044;-61
2023/07/21 20:51:45;;;;;;;11.20;4.37;;;;;;;;;;4912779;29;20203;-61
2023/07/21 20:54:11;;;;;;;11.93;5.20;;;;;;;;;;4912863;29;20570;-61
2023/07/21 20:56:37;;;;;;;9.43;4.40;;;;;;;;;;4912895;29;20047;-61
2023/07/21 20:59:03;;;;;;;12.47;4.30;;;;;;;;;;4911544;29;20071;-61
2023/07/21 21:01:31;;;;;;;12.73;5.50;;;;;;;;;;4911634;29;20495;-61
2023/07/21 21:03:57;;;;;;;11.23;4.63;;;;;;;;;;4912473;29;20055;-61
2023/07/21 21:06:23;;;;;;;8.73;4.67;;;;;;;;;;4912891;29;20048;-61
2023/07/21 21:08:49;;;;;;;9.73;4.77;;;;;;;;;;4912450;29;20047;-61
2023/07/21 21:11:15;;;;;;;12.27;5.23;;;;;;;;;;4912986;29;20067;-61
2023/07/21 21:13:41;;;;;;;14.17;5.07;;;;;;;;;;4911184;29;20561;-61
2023/07/21 21:16:07;;;;;;;10.50;5.10;;;;;;;;;;4912379;29;20072;-61
2023/07/21 21:18:33;;;;;;;14.03;5.73;;;;;;;;;;4911620;29;20052;-61
2023/07/21 21:20:59;;;;;;;15.43;6.60;;;;;;;;;;4912771;29;20060;-61
2023/07/21 21:23:25;;;;;;;12.17;5.80;;;;;;;;;;4912313;29;20047;-61
2023/07/21 21:25:53;;;;;;;10.93;5.87;;;;;;;;;;4913101;29;20410;-61
2023/07/21 21:28:19;;;;;;;15.03;5.70;;;;;;;;;;4913097;29;20048;-61
2023/07/21 21:30:45;;;;;;;10.27;6.83;;;;;;;;;;4912426;29;20048;-61
2023/07/21 21:33:11;;;;;;;13.57;6.00;;;;;;;;;;4911288;29;20495;-61
2023/07/21 21:35:37;;;;;;;13.43;7.00;;;;;;;;;;4912658;29;20051;-61
2023/07/21 21:38:03;;;;;;;11.43;5.57;;;;;;;;;;4911741;29;20048;-61
2023/07/21 21:40:32;;;;;;;11.33;5.93;;;;;;;;;;4912540;29;20047;-61
2023/07/21 21:42:58;;;;;;;12.47;6.17;;;;;;;;;;4911820;29;20056;-61
2023/07/21 21:45:23;;;;;;;13.77;6.17;;;;;;;;;;4912480;29;20048;-61
2023/07/21 21:47:49;;;;;;;13.27;6.93;;;;;;;;;;4913853;29;20079;-61
2023/07/21 21:50:15;;;;;;;17.00;6.83;;;;;;;;;;4915483;29;20048;-61
2023/07/21 21:52:41;;;;;;;14.00;6.03;;;;;;;;;;4914542;29;20156;-61
2023/07/21 21:55:09;;;;;;;13.87;6.13;;;;;;;;;;4916246;29;20062;-61
2023/07/21 21:57:35;;;;;;;15.20;6.17;;;;;;;;;;4916208;29;20063;-61
2023/07/21 22:00:02;;;;;;;13.63;6.33;;;;;;;;;;4915015;29;20443;-61
2023/07/21 22:02:28;;;;;;;11.00;6.10;;;;;;;;;;4916070;29;20127;-61
2023/07/21 22:04:54;;;;;;;10.97;6.00;;;;;;;;;;4916294;29;20207;-61
2023/07/21 22:07:20;;;;;;;13.90;6.20;;;;;;;;;;4915424;29;20048;-61
2023/07/21 22:09:45;;;;;;;15.00;7.70;;;;;;;;;;4915746;29;20491;-61
2023/07/21 22:12:11;;;;;;;13.07;6.53;;;;;;;;;;4916058;29;20040;-61
2023/07/21 22:14:38;;;;;;;17.53;7.23;;;;;;;;;;4915652;29;21091;-61
2023/07/21 22:17:07;;;;;;;14.73;6.87;;;;;;;;;;4915723;29;20054;-61
2023/07/21 22:19:33;;;;;;;19.17;7.40;;;;;;;;;;4916189;29;20048;-61
2023/07/21 22:21:59;;;;;;;16.00;7.87;;;;;;;;;;4916060;29;20495;-61
2023/07/21 22:24:27;;;;;;;15.73;7.87;;;;;;;;;;4902084;29;20056;-61
2023/07/21 22:26:53;;;;;;;12.67;6.47;;;;;;;;;;4916517;29;20126;-61
2023/07/21 22:29:19;;;;;;;15.60;6.60;;;;;;;;;;4934264;29;20043;-61
2023/07/21 22:31:45;;;;;;;13.13;7.07;;;;;;;;;;4934119;29;20052;-61
2023/07/21 22:34:11;;;;;;;15.63;6.60;;;;;;;;;;4925780;29;20052;-61
2023/07/21 22:36:37;;;;;;;18.10;8.10;;;;;;;;;;4914959;29;20052;-61
2023/07/21 22:39:03;;;;;;;14.10;7.40;;;;;;;;;;4914905;29;20523;-61
2023/07/21 22:41:29;;;;;;;14.23;7.97;;;;;;;;;;4914886;29;20086;-61
2023/07/21 22:43:56;;;;;;;25.37;8.10;;;;;;;;;;4914930;29;20054;-61
2023/07/21 22:46:22;;;;;;;18.93;8.13;;;;;;;;;;4915963;29;20471;-60
2023/07/21 22:48:48;;;;;;;14.43;8.20;;;;;;;;;;4915010;29;20044;-60
2023/07/21 22:51:14;;;;;;;20.37;8.27;;;;;;;;;;4915238;29;20047;-61
2023/07/21 22:53:40;;;;;;;16.33;8.33;;;;;;;;;;4915792;29;20048;-61
2023/07/21 22:56:07;;;;;;;18.30;9.20;;;;;;;;;;4915149;29;20058;-61
2023/07/21 22:58:33;;;;;;;19.03;8.20;;;;;;;;;;4915402;29;20047;-61
2023/07/21 23:01:03;;;;;;;18.67;8.13;;;;;;;;;;4915423;29;20100;-61
2023/07/21 23:03:29;;;;;;;17.53;7.87;;;;;;;;;;4915074;29;20566;-61
2023/07/21 23:05:56;;;;;;;17.57;8.77;;;;;;;;;;4914369;29;20396;-61
2023/07/21 23:08:22;;;;;;;16.97;8.87;;;;;;;;;;4915065;29;20051;-61
2023/07/21 23:10:48;;;;;;;16.90;8.70;;;;;;;;;;4914557;29;20068;-61
2023/07/21 23:13:14;;;;;;;14.83;8.23;;;;;;;;;;4913490;29;20112;-61
2023/07/21 23:15:40;;;;;;;17.97;8.57;;;;;;;;;;4914343;29;20091;-61
2023/07/21 23:18:06;;;;;;;16.77;8.60;;;;;;;;;;4913896;29;20056;-61
2023/07/21 23:20:32;;;;;;;20.90;9.50;;;;;;;;;;4914412;29;20502;-61
2023/07/21 23:22:58;;;;;;;17.13;8.93;;;;;;;;;;4914452;29;20467;-61
2023/07/21 23:25:25;;;;;;;21.53;9.47;;;;;;;;;;4914107;29;20062;-61
2023/07/21 23:27:51;;;;;;;17.43;9.73;;;;;;;;;;4896696;29;20056;-61
2023/07/21 23:30:17;;;;;;;20.03;9.60;;;;;;;;;;4914271;29;20054;-60
2023/07/21 23:32:43;;;;;;;20.33;10.27;;;;;;;;;;4914057;29;20059;-60
2023/07/21 23:35:10;;;;;;;21.90;9.47;;;;;;;;;;4914225;29;20048;-60
2023/07/21 23:37:36;;;;;;;23.83;9.90;;;;;;;;;;4913804;29;20052;-60
2023/07/21 23:40:09;;;;;;;20.73;10.53;;;;;;;;;;4914354;29;20699;-60
2023/07/21 23:42:35;;;;;;;23.75;10.25;;;;;;;;;;4914130;29;20086;-60
2023/07/21 23:45:01;;;;;;;19.90;10.13;;;;;;;;;;4914384;29;20048;-60
2023/07/21 23:47:27;;;;;;;22.17;10.03;;;;;;;;;;4912956;29;20052;-60
2023/07/21 23:49:53;;;;;;;19.00;10.20;;;;;;;;;;4894820;29;20055;-60
2023/07/21 23:52:19;;;;;;;20.53;10.97;;;;;;;;;;4895118;29;20044;-60
2023/07/21 23:54:45;;;;;;;21.53;10.40;;;;;;;;;;4894787;29;20041;-61
2023/07/21 23:57:11;;;;;;;24.40;10.47;;;;;;;;;;4895237;29;20183;-61
2023/07/21 23:59:37;;;;;;;19.17;9.93;;;;;;;;;;4895207;29;20044;-60
